Time;durP1;ratioP1;P1;durP2;ratioP2;P2;SDS_P1;SDS_P2;PMS_P1;PMS_P2;Temp;Humidity;BMP_temperature;BMP_pressure;BME280_temperature;BME280_humidity;BME280_pressure;Samples;Min_cycle;Max_cycle;Signal;HPM_P1;HPM_P2
2023/07/31 00:00:48;;;;;;;2.80;1.40;;;16.60;99.90;;;;;;5119570;28;20901;-61
2023/07/31 00:03:15;;;;;;;4.77;2.00;;;;;;;;;;5112790;28;20445;-66
2023/07/31 00:05:42;;;;;;;6.40;1.47;;;;;;;;;;5097287;28;20473;-65
2023/07/31 00:08:09;;;;;;;5.43;2.10;;;;;;;;;;5097369;28;20848;-65
2023/07/31 00:10:36;;;;;;;5.23;1.67;;;16.50;99.90;;;;;;5097283;28;20508;-64
2023/07/31 00:13:04;;;;;;;5.93;2.40;;;;;;;;;;5108558;28;20449;-54
2023/07/31 00:15:31;;;;;;;2.70;2.10;;;16.30;99.90;;;;;;5099078;28;20832;-62
2023/07/31 00:18:00;;;;;;;4.40;2.10;;;16.10;99.90;;;;;;5096932;28;20520;-65
2023/07/31 00:20:27;;;;;;;3.70;1.70;;;16.50;99.90;;;;;;5097273;28;20442;-65
2023/07/31 00:22:54;;;;;;;1.60;1.40;;;16.40;99.90;;;;;;5106174;28;20569;-55
2023/07/31 00:25:24;;;;;;;4.90;2.30;;;;;;;;;;5121292;28;20488;-57
2023/07/31 00:27:51;;;;;;;2.03;1.63;;;16.40;99.90;;;;;;5108586;28;20520;-64
2023/07/31 00:30:18;;;;;;;6.30;2.13;;;16.50;99.90;;;;;;5097086;28;20472;-66
2023/07/31 00:32:47;;;;;;;2.73;1.97;;;16.40;99.90;;;;;;5097004;28;20524;-64
2023/07/31 00:35:16;;;;;;;2.60;1.43;;;;;;;;;;5096580;28;20556;-64
2023/07/31 00:37:42;;;;;;;2.90;2.10;;;16.30;99.90;;;;;;5096571;28;20906;-61
2023/07/31 00:40:16;;;;;;;3.10;2.00;;;16.50;99.90;;;;;;5109056;28;20521;-50
2023/07/31 00:42:43;;;;;;;4.77;2.30;;;;;;;;;;5117211;28;20422;-65
2023/07/31 00:45:10;;;;;;;3.57;2.73;;;16.60;99.90;;;;;;5102106;28;20516;-64
2023/07/31 00:47:38;;;;;;;3.07;1.97;;;;;;;;;;5098559;28;20513;-64
2023/07/31 00:50:05;;;;;;;2.20;2.00;;;;;;;;;;5096297;28;20441;-64
2023/07/31 00:52:33;;;;;;;3.97;2.00;;;16.80;99.90;;;;;;5096150;28;20466;-66
2023/07/31 00:55:06;;;;;;;3.23;1.77;;;16.70;99.90;;;;;;5120016;28;20412;-54
2023/07/31 00:57:35;;;;;;;2.27;1.77;;;16.80;99.90;;;;;;5118636;28;20446;-64
2023/07/31 01:00:03;;;;;;;2.37;1.70;;;16.50;99.90;;;;;;5109668;28;20480;-65
2023/07/31 01:02:30;;;;;;;4.80;2.07;;;;;;;;;;5096008;28;20548;-64
2023/07/31 01:04:57;;;;;;;2.80;2.50;;;;;;;;;;5118978;28;20457;-54
2023/07/31 01:07:36;;;;;;;5.20;2.70;;;16.50;99.90;;;;;;5120387;28;20417;-55
2023/07/31 01:10:12;;;;;;;3.30;2.13;;;16.70;99.90;;;;;;5116094;28;20422;-61
2023/07/31 01:12:43;;;;;;;4.73;2.60;;;16.90;99.90;;;;;;5097575;28;20478;-64
2023/07/31 01:15:11;;;;;;;2.37;2.03;;;16.70;99.90;;;;;;5095805;28;20459;-64
2023/07/31 01:17:38;;;;;;;2.93;2.10;;;16.90;99.90;;;;;;5105535;28;20446;-55
2023/07/31 01:20:11;;;;;;;4.13;2.10;;;16.80;99.90;;;;;;5110387;28;20800;-64
2023/07/31 01:23:04;;;;;;;2.60;1.80;;;16.80;99.90;;;;;;5099199;28;20532;-60
2023/07/31 01:25:48;;;;;;;3.30;2.27;;;16.80;99.90;;;;;;5091742;28;20480;-64
2023/07/31 01:28:22;;;;;;;2.47;1.93;;;16.80;99.90;;;;;;5109505;28;20473;-65
2023/07/31 01:30:50;;;;;;;4.33;2.33;;;16.80;99.90;;;;;;5107613;28;20458;-60
2023/07/31 01:33:18;;;;;;;1.90;1.80;;;16.60;99.90;;;;;;5106857;28;20500;-64
2023/07/31 01:35:51;;;;;;;2.63;2.40;;;16.70;99.90;;;;;;5096713;28;20503;-63
2023/07/31 01:38:22;;;;;;;6.23;2.70;;;16.80;99.90;;;;;;5118878;28;20426;-63
2023/07/31 01:40:53;;;;;;;6.60;2.17;;;16.80;99.90;;;;;;5098042;28;20870;-65
2023/07/31 01:43:20;;;;;;;2.40;2.20;;;16.80;99.90;;;;;;5108412;28;20426;-55
2023/07/31 01:45:47;;;;;;;2.67;2.03;;;16.70;99.90;;;;;;5118469;28;20444;-65
2023/07/31 01:48:16;;;;;;;3.87;2.20;;;16.80;99.90;;;;;;5107282;28;20500;-55
2023/07/31 01:50:46;;;;;;;3.30;2.40;;;;;;;;;;5109138;28;20460;-65
2023/07/31 01:53:15;;;;;;;3.37;2.20;;;;;;;;;;5106917;28;20464;-64
2023/07/31 01:55:42;;;;;;;3.47;2.33;;;16.70;99.90;;;;;;5103541;28;20441;-64
2023/07/31 01:58:10;;;;;;;2.53;2.30;;;17.20;99.90;;;;;;5095611;28;20524;-63
2023/07/31 02:00:37;;;;;;;3.03;2.73;;;16.90;99.90;;;;;;5098945;28;20552;-63
2023/07/31 02:03:04;;;;;;;3.17;2.23;;;16.80;99.90;;;;;;5095462;28;20498;-63
2023/07/31 02:05:33;;;;;;;3.73;2.60;;;16.70;99.90;;;;;;5095077;28;20532;-63
2023/07/31 02:08:01;;;;;;;2.50;2.30;;;;;;;;;;5107712;28;20519;-62
2023/07/31 02:10:27;;;;;;;3.20;2.70;;;16.80;99.90;;;;;;5094818;28;20560;-62
2023/07/31 02:12:54;;;;;;;6.23;3.20;;;17.00;99.90;;;;;;5094853;28;20504;-62
2023/07/31 02:15:23;;;;;;;3.27;2.70;;;16.90;99.90;;;;;;5094186;28;20480;-62
2023/07/31 02:17:50;;;;;;;7.70;2.60;;;17.00;99.90;;;;;;5094740;28;20951;-64
2023/07/31 02:20:17;;;;;;;2.73;2.10;;;;;;;;;;5095006;28;20528;-62
2023/07/31 02:22:44;;;;;;;4.90;2.40;;;17.20;99.90;;;;;;5094548;28;20530;-63
2023/07/31 02:25:14;;;;;;;2.80;2.60;;;16.90;99.90;;;;;;5094650;28;20533;-63
2023/07/31 02:27:41;;;;;;;2.90;2.60;;;17.00;99.90;;;;;;5104274;28;20564;-64
2023/07/31 02:30:09;;;;;;;2.83;2.40;;;17.20;99.90;;;;;;5094895;28;20519;-61
2023/07/31 02:32:39;;;;;;;5.43;2.50;;;17.10;99.90;;;;;;5118214;28;20461;-46
2023/07/31 02:35:06;;;;;;;9.60;2.93;;;17.00;99.90;;;;;;5116434;28;20430;-59
2023/07/31 02:37:34;;;;;;;4.50;2.80;;;17.10;99.90;;;;;;5113188;28;20466;-63
2023/07/31 02:40:01;;;;;;;4.33;2.67;;;17.00;99.90;;;;;;5094791;28;20433;-62
2023/07/31 02:42:28;;;;;;;10.33;4.20;;;;;;;;;;5094426;28;20445;-64
2023/07/31 02:44:55;;;;;;;2.23;1.80;;;17.10;99.90;;;;;;5094446;28;20477;-63
2023/07/31 02:47:23;;;;;;;4.23;2.03;;;16.80;99.90;;;;;;5094809;28;20467;-62
2023/07/31 02:49:51;;;;;;;2.93;2.60;;;17.10;99.90;;;;;;5094559;28;20499;-64
2023/07/31 02:52:18;;;;;;;4.40;2.93;;;;;;;;;;5094414;28;20442;-63
2023/07/31 02:54:45;;;;;;;3.60;2.90;;;17.20;99.90;;;;;;5104823;28;20479;-64
2023/07/31 02:57:12;;;;;;;3.63;2.60;;;17.10;99.90;;;;;;5099799;28;20492;-51
2023/07/31 02:59:41;;;;;;;4.60;3.60;;;17.10;99.90;;;;;;5118809;28;20457;-49
2023/07/31 03:02:08;;;;;;;6.70;3.80;;;17.00;99.90;;;;;;5096315;28;20493;-61
2023/07/31 03:04:35;;;;;;;4.40;4.00;;;17.20;99.90;;;;;;5094291;28;20457;-63
2023/07/31 03:07:03;;;;;;;3.17;2.87;;;17.10;99.90;;;;;;5099465;28;20536;-63
2023/07/31 03:09:30;;;;;;;4.00;3.20;;;;;;;;;;5100549;28;20473;-61
2023/07/31 03:12:01;;;;;;;4.27;3.03;;;17.00;99.90;;;;;;5102728;28;20481;-65
2023/07/31 03:14:28;;;;;;;4.00;3.00;;;17.10;99.90;;;;;;5100736;28;20497;-64
2023/07/31 03:16:58;;;;;;;3.60;3.30;;;17.40;99.90;;;;;;5109573;28;20764;-61
2023/07/31 03:19:25;;;;;;;6.60;3.17;;;17.00;99.90;;;;;;5099808;28;20473;-64
2023/07/31 03:21:52;;;;;;;3.13;2.83;;;17.10;99.90;;;;;;5101691;28;20422;-63
2023/07/31 03:24:20;;;;;;;3.27;2.77;;;;;;;;;;5098533;28;20465;-64
2023/07/31 03:26:47;;;;;;;2.73;2.53;;;16.80;99.90;;;;;;5099924;28;20548;-62
2023/07/31 03:29:16;;;;;;;6.60;4.07;;;16.90;99.90;;;;;;5101981;28;20505;-60
2023/07/31 03:31:43;;;;;;;7.23;3.70;;;;;;;;;;5097769;28;20496;-65
2023/07/31 03:34:10;;;;;;;5.27;3.97;;;;;;;;;;5098233;28;20993;-64
2023/07/31 03:36:40;;;;;;;5.93;3.73;;;17.10;99.90;;;;;;5099004;28;20921;-64
2023/07/31 03:39:10;;;;;;;3.47;3.10;;;16.80;99.90;;;;;;5098638;28;20544;-64
2023/07/31 03:41:41;;;;;;;5.03;3.33;;;17.50;99.90;;;;;;5097520;28;20507;-65
2023/07/31 03:44:08;;;;;;;5.20;2.60;;;;;;;;;;5100342;28;20442;-59
2023/07/31 03:46:35;;;;;;;6.33;4.17;;;16.80;99.90;;;;;;5100402;28;20429;-61
2023/07/31 03:49:08;;;;;;;4.57;3.40;;;16.90;99.90;;;;;;5100566;28;20481;-60
2023/07/31 03:51:35;;;;;;;4.83;3.57;;;;;;;;;;5096958;28;20522;-64
2023/07/31 03:54:07;;;;;;;8.67;3.60;;;17.70;99.90;;;;;;5097397;28;20473;-64
2023/07/31 03:56:34;;;;;;;11.20;3.60;;;16.90;99.90;;;;;;5120721;28;20445;-45
2023/07/31 03:59:02;;;;;;;4.27;3.80;;;17.00;99.90;;;;;;5117122;28;20418;-63
2023/07/31 04:01:29;;;;;;;3.87;3.27;;;;;;;;;;5097213;28;20476;-64
2023/07/31 04:03:56;;;;;;;7.10;4.00;;;17.00;99.90;;;;;;5097531;28;20500;-59
2023/07/31 04:06:23;;;;;;;6.47;4.40;;;17.10;99.90;;;;;;5097441;28;20467;-60
2023/07/31 04:08:52;;;;;;;5.20;3.17;;;17.20;99.90;;;;;;5097438;28;21038;-63
2023/07/31 04:11:22;;;;;;;6.10;2.97;;;17.00;99.90;;;;;;5103328;28;20450;-55
2023/07/31 04:13:49;;;;;;;7.33;4.93;;;17.00;99.90;;;;;;5098343;28;20437;-64
2023/07/31 04:16:17;;;;;;;7.10;4.00;;;17.00;99.90;;;;;;5096926;28;20552;-65
2023/07/31 04:18:44;;;;;;;3.17;2.60;;;;;;;;;;5097010;28;20910;-61
2023/07/31 04:21:11;;;;;;;4.53;4.03;;;16.80;99.90;;;;;;5096710;28;20518;-63
2023/07/31 04:23:38;;;;;;;4.53;3.70;;;17.00;99.90;;;;;;5097213;28;20468;-63
2023/07/31 04:26:05;;;;;;;4.47;3.97;;;17.60;99.90;;;;;;5104038;28;20477;-64
2023/07/31 04:28:39;;;;;;;5.40;3.57;;;16.90;99.90;;;;;;5099572;28;20501;-58
2023/07/31 04:31:09;;;;;;;5.20;4.20;;;16.70;99.90;;;;;;5113545;28;20520;-63
2023/07/31 04:33:37;;;;;;;5.23;3.63;;;16.90;99.90;;;;;;5096713;28;20541;-64
2023/07/31 04:36:06;;;;;;;5.60;3.67;;;16.70;99.90;;;;;;5096934;28;20810;-63
2023/07/31 04:38:36;;;;;;;4.67;4.00;;;16.80;99.90;;;;;;5095931;28;20456;-59
2023/07/31 04:41:03;;;;;;;6.63;3.77;;;17.10;99.90;;;;;;5097087;28;20538;-64
2023/07/31 04:43:30;;;;;;;4.60;3.63;;;17.30;99.90;;;;;;5096803;28;20441;-63
2023/07/31 04:45:57;;;;;;;3.40;3.10;;;;;;;;;;5096283;28;20534;-63
2023/07/31 04:48:25;;;;;;;5.07;3.50;;;;;;;;;;5096647;28;20467;-60
2023/07/31 04:50:53;;;;;;;5.23;4.03;;;16.90;99.90;;;;;;5096505;28;20583;-63
2023/07/31 04:53:20;;;;;;;7.40;3.73;;;17.00;99.90;;;;;;5097092;28;20449;-64
2023/07/31 04:55:47;;;;;;;4.10;3.50;;;;;;;;;;5096568;28;20466;-64
2023/07/31 04:58:14;;;;;;;5.57;3.40;;;17.10;99.90;;;;;;5096433;28;20469;-63
2023/07/31 05:00:41;;;;;;;7.90;3.50;;;;;;;;;;5096136;28;20446;-64
2023/07/31 05:03:08;;;;;;;5.90;3.30;;;16.90;99.90;;;;;;5096097;28;20525;-63
2023/07/31 05:05:35;;;;;;;3.30;3.00;;;17.10;99.90;;;;;;5119623;28;20422;-50
2023/07/31 05:08:08;;;;;;;5.90;3.10;;;17.10;99.90;;;;;;5102857;28;20493;-51
2023/07/31 05:10:36;;;;;;;4.73;2.90;;;;;;;;;;5120173;28;20491;-50
2023/07/31 05:13:03;;;;;;;5.07;3.43;;;;;;;;;;5111950;28;20444;-54
2023/07/31 05:15:30;;;;;;;4.93;2.73;;;;;;;;;;5105531;28;20452;-46
2023/07/31 05:17:59;;;;;;;3.37;2.80;;;17.60;99.90;;;;;;5110672;28;20418;-50
2023/07/31 05:20:27;;;;;;;10.07;3.30;;;17.30;99.90;;;;;;5103523;28;20916;-64
2023/07/31 05:22:54;;;;;;;7.13;3.23;;;;;;;;;;5095614;28;20534;-64
2023/07/31 05:25:27;;;;;;;4.50;2.47;;;17.30;99.90;;;;;;5098056;28;20467;-62
2023/07/31 05:27:53;;;;;;;6.73;3.60;;;17.40;99.90;;;;;;5095584;28;20956;-64
2023/07/31 05:30:21;;;;;;;2.73;2.50;;;17.50;99.90;;;;;;5096010;28;21020;-64
2023/07/31 05:32:50;;;;;;;3.63;2.70;;;;;;;;;;5107205;28;20450;-50
2023/07/31 05:35:17;;;;;;;4.77;2.37;;;17.40;99.90;;;;;;5101236;28;20457;-64
2023/07/31 05:37:44;;;;;;;8.23;2.90;;;;;;;;;;5095847;28;20524;-64
2023/07/31 05:40:12;;;;;;;6.37;3.50;;;17.30;99.90;;;;;;5114855;28;20473;-59
2023/07/31 05:42:40;;;;;;;9.77;3.20;;;17.20;99.90;;;;;;5115141;28;20452;-58
2023/07/31 05:45:10;;;;;;;5.27;2.83;;;17.70;99.90;;;;;;5104549;28;20456;-52
2023/07/31 05:47:37;;;;;;;4.70;2.60;;;17.10;99.90;;;;;;5119827;28;20399;-49
2023/07/31 05:50:07;;;;;;;3.30;2.87;;;17.20;99.90;;;;;;5118696;28;20449;-50
2023/07/31 05:52:34;;;;;;;6.97;3.40;;;17.20;99.90;;;;;;5119692;28;20406;-49
2023/07/31 05:55:01;;;;;;;3.67;2.80;;;;;;;;;;5112181;28;20468;-55
2023/07/31 05:57:33;;;;;;;5.23;2.83;;;17.10;99.90;;;;;;5100072;28;20469;-53
2023/07/31 06:00:06;;;;;;;7.90;2.83;;;17.40;99.90;;;;;;5119524;28;20410;-51
2023/07/31 06:02:36;;;;;;;8.00;3.07;;;17.30;99.90;;;;;;5107012;28;20460;-47
2023/07/31 06:05:03;;;;;;;7.20;2.83;;;;;;;;;;5112813;28;20475;-59
2023/07/31 06:07:30;;;;;;;5.17;2.60;;;17.50;99.90;;;;;;5114675;28;20473;-51
2023/07/31 06:10:02;;;;;;;5.47;2.87;;;17.30;99.90;;;;;;5111540;28;20468;-45
2023/07/31 06:12:31;;;;;;;3.30;2.33;;;17.40;99.90;;;;;;5119366;28;20451;-50
2023/07/31 06:14:58;;;;;;;4.20;2.77;;;17.40;99.90;;;;;;5113426;28;20491;-64
2023/07/31 06:17:27;;;;;;;5.00;3.03;;;;;;;;;;5107688;28;20488;-65
2023/07/31 06:19:54;;;;;;;8.17;3.37;;;;;;;;;;5112824;28;20490;-48
2023/07/31 06:22:21;;;;;;;3.17;2.63;;;17.50;99.90;;;;;;5113110;28;20426;-60
2023/07/31 06:24:48;;;;;;;7.87;2.90;;;17.40;99.90;;;;;;5110760;28;20446;-52
2023/07/31 06:27:15;;;;;;;5.03;3.33;;;17.40;99.90;;;;;;5114904;28;20441;-65
2023/07/31 06:29:42;;;;;;;3.03;2.57;;;;;;;;;;5108801;28;20509;-52
2023/07/31 06:32:11;;;;;;;6.73;3.20;;;17.30;99.90;;;;;;5109539;28;20434;-51
2023/07/31 06:34:40;;;;;;;4.47;2.60;;;;;;;;;;5107577;28;20444;-63
2023/07/31 06:37:07;;;;;;;6.90;2.83;;;17.40;99.90;;;;;;5103651;28;20446;-49
2023/07/31 06:39:34;;;;;;;5.83;2.60;;;17.40;99.90;;;;;;5113329;28;20438;-62
2023/07/31 06:42:01;;;;;;;4.03;2.43;;;;;;;;;;5094492;28;20524;-63
2023/07/31 06:44:28;;;;;;;4.50;2.80;;;17.50;99.90;;;;;;5095347;28;20524;-65
2023/07/31 06:46:55;;;;;;;4.10;2.50;;;;;;;;;;5094767;28;20473;-63
2023/07/31 06:49:22;;;;;;;4.00;2.50;;;17.70;99.90;;;;;;5094675;28;20553;-64
2023/07/31 06:51:50;;;;;;;7.20;3.37;;;17.80;99.90;;;;;;5094434;28;20524;-64
2023/07/31 06:54:17;;;;;;;4.53;2.17;;;17.80;99.90;;;;;;5094745;28;20447;-62
2023/07/31 06:56:44;;;;;;;10.30;2.93;;;17.50;99.90;;;;;;5105731;28;20425;-61
2023/07/31 06:59:10;;;;;;;2.93;2.17;;;18.00;99.90;;;;;;5098669;28;20913;-65
2023/07/31 07:01:37;;;;;;;3.70;2.00;;;17.80;99.90;;;;;;5096227;28;20521;-63
2023/07/31 07:04:06;;;;;;;6.77;2.47;;;17.60;99.90;;;;;;5108302;28;20448;-48
2023/07/31 07:06:34;;;;;;;4.47;2.50;;;17.90;99.90;;;;;;5108090;28;20477;-49
2023/07/31 07:09:03;;;;;;;6.97;2.93;;;18.20;99.90;;;;;;5108249;28;20440;-48
2023/07/31 07:11:30;;;;;;;3.60;1.83;;;;;;;;;;5118220;28;20481;-62
2023/07/31 07:14:00;;;;;;;5.30;2.07;;;17.70;99.90;;;;;;5117039;28;20441;-49
2023/07/31 07:16:29;;;;;;;3.97;2.23;;;17.60;99.90;;;;;;5111644;28;20434;-62
2023/07/31 07:18:56;;;;;;;3.60;2.20;;;;;;;;;;5111054;28;20426;-51
2023/07/31 07:21:23;;;;;;;6.13;2.90;;;17.80;99.90;;;;;;5107595;28;20430;-48
2023/07/31 07:23:50;;;;;;;9.10;2.97;;;;;;;;;;5119386;28;20430;-59
2023/07/31 07:26:18;;;;;;;2.70;2.27;;;17.70;99.90;;;;;;5106363;28;20530;-55
2023/07/31 07:28:46;;;;;;;3.90;3.07;;;;;;;;;;5121796;28;20425;-50
2023/07/31 07:31:12;;;;;;;7.00;2.63;;;17.70;99.90;;;;;;5106578;28;20564;-60
2023/07/31 07:33:39;;;;;;;3.33;2.70;;;18.10;99.90;;;;;;5118178;28;20455;-51
2023/07/31 07:36:09;;;;;;;2.77;2.50;;;;;;;;;;5108066;28;20437;-64
2023/07/31 07:38:39;;;;;;;3.97;2.80;;;18.00;99.90;;;;;;5112891;28;20460;-46
2023/07/31 07:41:06;;;;;;;10.97;3.93;;;18.70;99.90;;;;;;5120729;28;20453;-48
2023/07/31 07:43:34;;;;;;;3.53;2.93;;;18.30;99.90;;;;;;5099432;28;20536;-65
2023/07/31 07:46:01;;;;;;;2.57;2.10;;;18.50;99.90;;;;;;5097888;28;20496;-67
2023/07/31 07:48:28;;;;;;;3.80;3.13;;;18.80;99.90;;;;;;5117263;28;20429;-47
2023/07/31 07:50:55;;;;;;;4.83;2.20;;;;;;;;;;5121723;28;20494;-47
2023/07/31 07:53:22;;;;;;;3.93;2.00;;;18.90;99.90;;;;;;5101690;28;20426;-65
2023/07/31 07:55:49;;;;;;;8.50;2.70;;;19.00;99.90;;;;;;5097821;28;20530;-64
2023/07/31 07:58:16;;;;;;;2.50;2.30;;;18.90;99.90;;;;;;5097478;28;20494;-65
2023/07/31 08:00:50;;;;;;;3.30;2.37;;;18.70;99.90;;;;;;5097713;28;20559;-62
2023/07/31 08:03:17;;;;;;;4.97;2.73;;;;;;;;;;5097380;28;20885;-65
2023/07/31 08:05:45;;;;;;;2.23;2.00;;;18.50;99.90;;;;;;5119519;28;20493;-48
2023/07/31 08:08:18;;;;;;;2.80;2.23;;;18.30;99.90;;;;;;5121595;28;20398;-49
2023/07/31 08:10:45;;;;;;;2.23;2.03;;;18.10;99.90;;;;;;5103470;28;20477;-66
2023/07/31 08:13:12;;;;;;;3.33;1.97;;;;;;;;;;5096359;28;20508;-67
2023/07/31 08:15:39;;;;;;;3.70;2.30;;;;;;;;;;5098951;28;20936;-66
2023/07/31 08:18:07;;;;;;;2.57;2.10;;;18.10;99.90;;;;;;5097214;28;20892;-66
2023/07/31 08:20:35;;;;;;;5.17;1.93;;;;;;;;;;5120435;28;20441;-52
2023/07/31 08:23:03;;;;;;;3.47;1.93;;;18.10;99.90;;;;;;5118998;28;20460;-61
2023/07/31 08:25:31;;;;;;;2.80;2.33;;;;;;;;;;5107947;28;20426;-47
2023/07/31 08:27:58;;;;;;;2.80;2.03;;;;;;;;;;5106916;28;20441;-66
2023/07/31 08:30:25;;;;;;;2.80;2.20;;;18.10;99.90;;;;;;5097339;28;20560;-70
2023/07/31 08:32:52;;;;;;;2.90;2.10;;;18.30;99.90;;;;;;5097664;28;20477;-67
2023/07/31 08:35:21;;;;;;;2.30;2.10;;;18.50;99.90;;;;;;5115099;28;20445;-47
2023/07/31 08:37:49;;;;;;;4.73;2.70;;;;;;;;;;5117616;28;20438;-65
2023/07/31 08:40:16;;;;;;;2.20;1.90;;;;;;;;;;5101477;28;20458;-64
2023/07/31 08:42:46;;;;;;;4.17;2.63;;;18.50;99.90;;;;;;5097030;28;20473;-67
2023/07/31 08:45:18;;;;;;;4.07;2.20;;;18.60;99.90;;;;;;5114294;28;20429;-52
2023/07/31 08:47:47;;;;;;;2.40;2.20;;;18.60;99.90;;;;;;5104200;28;20508;-63
2023/07/31 08:50:15;;;;;;;2.90;2.23;;;18.60;99.90;;;;;;5096237;28;20577;-63
2023/07/31 08:52:43;;;;;;;3.53;2.47;;;18.70;99.90;;;;;;5096204;28;20535;-62
2023/07/31 08:55:10;;;;;;;2.33;1.80;;;18.70;99.90;;;;;;5096198;28;20530;-62
2023/07/31 08:57:39;;;;;;;2.10;1.90;;;18.90;99.90;;;;;;5102480;28;20442;-53
2023/07/31 09:00:09;;;;;;;3.10;2.40;;;18.70;99.90;;;;;;5100339;28;20520;-63
2023/07/31 09:02:47;;;;;;;4.13;2.10;;;18.80;99.90;;;;;;5107084;28;20421;-53
2023/07/31 09:05:14;;;;;;;4.00;3.20;;;;;;;;;;5113285;28;20874;-66
2023/07/31 09:07:46;;;;;;;4.83;3.00;;;19.00;99.90;;;;;;5096274;28;20965;-69
2023/07/31 09:10:13;;;;;;;3.73;2.60;;;;;;;;;;5095941;28;20538;-64
2023/07/31 09:12:40;;;;;;;4.33;2.20;;;;;;;;;;5096756;28;20482;-64
2023/07/31 09:15:12;;;;;;;3.23;2.20;;;18.80;99.90;;;;;;5107015;28;20441;-55
2023/07/31 09:17:39;;;;;;;2.53;1.90;;;18.70;99.90;;;;;;5120451;28;20424;-56
2023/07/31 09:20:16;;;;;;;3.60;2.00;;;18.90;99.90;;;;;;5106488;28;20531;-62
2023/07/31 09:22:46;;;;;;;7.63;2.33;;;19.10;99.90;;;;;;5095745;28;20507;-65
2023/07/31 09:25:17;;;;;;;4.00;1.70;;;18.90;99.90;;;;;;5095732;28;20469;-63
2023/07/31 09:27:48;;;;;;;5.70;3.67;;;18.80;99.90;;;;;;5096804;28;20472;-62
2023/07/31 09:30:15;;;;;;;1.40;1.20;;;18.80;99.90;;;;;;5095815;28;20469;-64
2023/07/31 09:32:42;;;;;;;2.00;1.70;;;;;;;;;;5095575;28;20529;-63
2023/07/31 09:35:22;;;;;;;4.65;2.40;;;18.80;99.90;;;;;;5107015;28;20437;-56
2023/07/31 09:37:52;;;;;;;5.50;3.20;;;18.90;99.90;;;;;;5104732;28;20289;-63
2023/07/31 09:40:32;;;;;;;4.90;3.50;;;18.20;99.90;;;;;;5108753;28;20433;-57
2023/07/31 09:43:00;;;;;;;3.10;2.27;;;18.50;99.90;;;;;;5111837;28;20458;-64
2023/07/31 09:45:34;;;;;;;2.17;1.80;;;18.50;99.90;;;;;;5113488;28;20480;-55
2023/07/31 09:48:05;;;;;;;2.27;1.60;;;18.60;99.90;;;;;;5119760;28;20446;-55
2023/07/31 09:50:32;;;;;;;5.07;1.53;;;;;;;;;;5101497;28;20540;-66
2023/07/31 09:53:00;;;;;;;3.10;2.07;;;18.30;99.90;;;;;;5095252;28;20486;-62
2023/07/31 09:55:31;;;;;;;2.70;1.87;;;17.50;99.90;;;;;;5111594;28;20441;-60
2023/07/31 09:57:58;;;;;;;3.73;1.53;;;18.70;99.90;;;;;;5095459;28;20455;-62
2023/07/31 10:00:29;;;;;;;3.10;1.70;;;18.60;99.90;;;;;;5111033;28;20452;-54
2023/07/31 10:02:59;;;;;;;2.73;1.80;;;18.40;99.90;;;;;;5106162;28;20515;-64
2023/07/31 10:05:38;;;;;;;6.57;2.20;;;18.60;99.90;;;;;;5113058;28;20453;-53
2023/07/31 10:08:12;;;;;;;9.97;4.23;;;18.70;99.90;;;;;;5119487;28;20398;-56
2023/07/31 10:10:45;;;;;;;5.23;3.53;;;18.80;99.90;;;;;;5114651;28;20503;-63
2023/07/31 10:13:12;;;;;;;3.50;1.93;;;;;;;;;;5114620;28;20456;-62
2023/07/31 10:15:41;;;;;;;2.87;2.40;;;19.00;99.90;;;;;;5114583;28;20457;-61
2023/07/31 10:18:08;;;;;;;3.87;2.60;;;;;;;;;;5114453;28;20456;-63
2023/07/31 10:20:36;;;;;;;17.83;10.47;;;19.00;99.90;;;;;;5108163;28;20930;-62
2023/07/31 10:23:07;;;;;;;5.70;3.40;;;19.10;99.90;;;;;;5106346;28;20538;-65
2023/07/31 10:25:34;;;;;;;4.30;2.90;;;;;;;;;;5095127;28;20449;-65
2023/07/31 10:28:01;;;;;;;4.27;3.50;;;19.20;99.90;;;;;;5094614;28;21048;-60
2023/07/31 10:30:31;;;;;;;6.10;2.73;;;19.00;99.90;;;;;;5094893;28;20479;-61
2023/07/31 10:33:01;;;;;;;10.23;3.33;;;19.20;99.90;;;;;;5107522;28;20453;-56
2023/07/31 10:35:30;;;;;;;3.60;3.23;;;19.20;99.90;;;;;;5119020;28;20461;-52
2023/07/31 10:38:14;;;;;;;5.50;3.23;;;19.30;99.90;;;;;;5105848;28;20453;-61
2023/07/31 10:40:41;;;;;;;6.33;3.60;;;19.60;99.90;;;;;;5094521;28;20469;-59
2023/07/31 10:43:11;;;;;;;8.17;3.13;;;19.50;99.90;;;;;;5094639;28;20429;-61
2023/07/31 10:45:39;;;;;;;4.67;3.07;;;19.90;99.90;;;;;;5094417;28;21052;-62
2023/07/31 10:48:07;;;;;;;5.23;3.30;;;20.30;99.90;;;;;;5094519;28;21006;-64
2023/07/31 10:50:39;;;;;;;6.60;2.80;;;20.70;99.90;;;;;;5095214;28;20466;-66
2023/07/31 10:53:07;;;;;;;4.43;3.17;;;;;;;;;;5113884;28;20444;-61
2023/07/31 10:55:41;;;;;;;5.23;2.63;;;21.60;99.90;;;;;;5102598;28;20457;-61
2023/07/31 10:58:11;;;;;;;3.93;2.80;;;22.10;99.90;;;;;;5094739;28;20463;-62
2023/07/31 11:00:39;;;;;;;6.30;3.63;;;22.40;99.90;;;;;;5094728;28;20441;-63
2023/07/31 11:03:08;;;;;;;7.63;2.87;;;22.30;99.90;;;;;;5094348;28;20975;-62
2023/07/31 11:05:47;;;;;;;4.90;3.10;;;22.60;99.90;;;;;;5094637;28;20441;-63
2023/07/31 11:08:16;;;;;;;3.43;2.73;;;23.10;99.90;;;;;;5095524;28;20493;-62
2023/07/31 11:10:45;;;;;;;5.03;2.87;;;23.20;99.90;;;;;;5094106;28;20553;-62
2023/07/31 11:13:12;;;;;;;4.80;3.33;;;;;;;;;;5094566;28;20526;-63
2023/07/31 11:15:40;;;;;;;4.07;2.77;;;;;;;;;;5110093;28;20422;-56
2023/07/31 11:18:08;;;;;;;3.10;2.50;;;;;;;;;;5096001;28;20472;-62
2023/07/31 11:20:36;;;;;;;6.63;4.00;;;22.80;99.90;;;;;;5094201;28;20445;-58
2023/07/31 11:23:04;;;;;;;5.57;2.93;;;22.60;99.90;;;;;;5115355;28;20468;-60
2023/07/31 11:25:32;;;;;;;7.07;3.37;;;;;;;;;;5103091;28;20507;-62
2023/07/31 11:28:04;;;;;;;3.03;2.73;;;22.10;99.90;;;;;;5107447;28;20485;-54
2023/07/31 11:30:31;;;;;;;3.50;2.60;;;;;;;;;;5107587;28;20458;-66
2023/07/31 11:32:58;;;;;;;5.40;2.50;;;22.10;99.90;;;;;;5094137;28;20449;-65
2023/07/31 11:35:25;;;;;;;5.53;2.57;;;22.00;99.90;;;;;;5096398;28;20895;-57
2023/07/31 11:37:55;;;;;;;3.93;3.00;;;22.10;99.90;;;;;;5116813;28;20851;-61
2023/07/31 11:40:22;;;;;;;4.27;2.50;;;22.00;99.90;;;;;;5106503;28;20438;-64
2023/07/31 11:42:49;;;;;;;5.80;2.77;;;19.60;99.90;;;;;;5094139;28;20473;-61
2023/07/31 11:45:17;;;;;;;2.97;2.37;;;21.80;99.90;;;;;;5093926;28;20473;-64
2023/07/31 11:47:45;;;;;;;4.73;2.90;;;21.80;99.90;;;;;;5094175;28;20561;-62
2023/07/31 11:50:13;;;;;;;4.17;2.67;;;;;;;;;;5097917;28;20816;-62
2023/07/31 11:52:45;;;;;;;4.57;3.00;;;22.10;99.90;;;;;;5098775;28;20979;-64
2023/07/31 11:55:15;;;;;;;2.73;2.50;;;21.00;99.90;;;;;;5122011;28;20414;-60
2023/07/31 11:57:53;;;;;;;7.80;3.37;;;21.40;99.90;;;;;;5110761;28;20480;-57
2023/07/31 12:00:28;;;;;;;3.87;2.70;;;21.40;99.90;;;;;;5121904;28;20408;-52
2023/07/31 12:02:55;;;;;;;4.83;2.80;;;21.20;99.90;;;;;;5120830;28;20422;-60
2023/07/31 12:05:25;;;;;;;4.33;3.20;;;21.10;99.90;;;;;;5119380;28;20441;-57
2023/07/31 12:07:53;;;;;;;3.87;2.97;;;21.10;99.90;;;;;;5117853;28;20461;-63
2023/07/31 12:10:33;;;;;;;6.03;3.60;;;21.20;99.90;;;;;;5115985;28;20591;-62
2023/07/31 12:13:06;;;;;;;5.30;3.80;;;21.10;99.90;;;;;;5113087;28;21025;-61
2023/07/31 12:15:39;;;;;;;3.63;2.90;;;21.20;99.90;;;;;;5097534;28;20534;-64
2023/07/31 12:18:07;;;;;;;4.30;2.93;;;21.60;99.90;;;;;;5097348;28;20730;-64
2023/07/31 12:20:35;;;;;;;3.23;2.93;;;;;;;;;;5097013;28;20810;-65
2023/07/31 12:23:02;;;;;;;3.33;3.03;;;21.50;99.90;;;;;;5099410;28;20468;-63
2023/07/31 12:25:31;;;;;;;3.50;2.73;;;21.50;99.90;;;;;;5110930;28;20421;-61
2023/07/31 12:27:58;;;;;;;2.80;2.30;;;21.60;99.90;;;;;;5103600;28;20984;-63
2023/07/31 12:30:29;;;;;;;5.63;3.17;;;21.40;99.90;;;;;;5097125;28;20450;-62
2023/07/31 12:32:58;;;;;;;4.10;2.70;;;;;;;;;;5098041;28;20496;-62
2023/07/31 12:35:24;;;;;;;4.57;2.97;;;21.70;99.90;;;;;;5098586;28;20959;-63
2023/07/31 12:37:52;;;;;;;4.30;3.20;;;;;;;;;;5097793;28;20506;-63
2023/07/31 12:40:19;;;;;;;3.50;2.33;;;;;;;;;;5096590;28;20833;-63
2023/07/31 12:42:46;;;;;;;4.30;2.90;;;;;;;;;;5096832;28;20495;-62
2023/07/31 12:45:14;;;;;;;2.90;2.20;;;;;;;;;;5096836;28;20521;-64
2023/07/31 12:47:41;;;;;;;3.60;2.60;;;21.80;99.90;;;;;;5096461;28;20477;-61
2023/07/31 12:50:10;;;;;;;4.23;2.83;;;21.90;99.90;;;;;;5096251;28;20552;-65
2023/07/31 12:52:37;;;;;;;4.27;2.67;;;;;;;;;;5096337;28;20473;-65
2023/07/31 12:55:04;;;;;;;2.87;2.43;;;22.00;99.90;;;;;;5096227;28;20552;-64
2023/07/31 12:57:44;;;;;;;3.07;2.67;;;22.00;99.90;;;;;;5119983;28;20429;-56
2023/07/31 13:00:12;;;;;;;26.33;13.80;;;22.00;99.90;;;;;;5111293;28;20480;-60
2023/07/31 13:02:39;;;;;;;3.77;2.10;;;21.90;99.90;;;;;;5096455;28;20446;-61
2023/07/31 13:05:07;;;;;;;44.70;22.80;;;;;;;;;;5096413;28;20530;-62
2023/07/31 13:07:35;;;;;;;4.30;2.90;;;;;;;;;;5096098;28;20467;-63
2023/07/31 13:10:03;;;;;;;2.27;2.07;;;;;;;;;;5096194;28;20441;-63
2023/07/31 13:12:29;;;;;;;3.50;2.10;;;21.60;99.90;;;;;;5096106;28;20580;-61
2023/07/31 13:14:57;;;;;;;3.03;2.60;;;;;;;;;;5096667;28;20730;-60
2023/07/31 13:17:24;;;;;;;2.80;2.60;;;;;;;;;;5116909;28;20441;-61
2023/07/31 13:19:51;;;;;;;2.90;2.20;;;;;;;;;;5098980;28;20429;-61
2023/07/31 13:22:18;;;;;;;2.23;2.03;;;;;;;;;;5096067;28;20437;-62